Time;durP1;ratioP1;P1;durP2;ratioP2;P2;SDS_P1;SDS_P2;PMS_P1;PMS_P2;Temp;Humidity;BMP_temperature;BMP_pressure;BME280_temperature;BME280_humidity;BME280_pressure;Samples;Min_cycle;Max_cycle;Signal;HPM_P1;HPM_P2
2021/07/23 00:59:18;;;;;;;;;;;;;;;;;;;;;
2021/07/23 01:05:24;;;;;;;11.03;7.90;;;25.20;54.40;;;;;;5943984;24;20406;-86
2021/07/23 01:07:59;;;;;;;8.07;7.27;;;25.10;54.40;;;;;;5918812;24;20399;-86
2021/07/23 01:10:37;;;;;;;9.20;8.30;;;25.20;54.40;;;;;;5921478;24;20399;-86
2021/07/23 01:13:08;;;;;;;7.93;7.23;;;25.20;54.40;;;;;;5921179;24;20451;-86
2021/07/23 01:15:36;;;;;;;8.63;7.73;;;25.30;54.50;;;;;;5943449;24;20383;-88
2021/07/23 01:18:07;;;;;;;7.83;7.03;;;25.30;54.50;;;;;;5919711;24;20492;-87
2021/07/23 01:20:41;;;;;;;8.70;7.67;;;25.30;54.40;;;;;;5941337;24;20415;-87
2021/07/23 01:23:16;;;;;;;8.27;7.43;;;25.30;54.40;;;;;;5973003;24;20396;-87
2021/07/23 01:25:44;;;;;;;9.77;8.27;;;25.30;54.90;;;;;;5952028;24;20400;-87
2021/07/23 01:28:12;;;;;;;9.17;7.93;;;25.40;54.40;;;;;;5997676;23;20385;-85
2021/07/23 01:30:38;;;;;;;6.80;6.03;;;25.40;54.40;;;;;;5996530;24;20400;-85
2021/07/23 01:33:08;;;;;;;7.90;7.07;;;25.40;54.30;;;;;;5996815;24;20397;-85
2021/07/23 01:35:38;;;;;;;7.80;6.27;;;25.40;54.30;;;;;;5996711;24;20389;-85
2021/07/23 01:38:13;;;;;;;7.47;6.70;;;25.40;54.30;;;;;;6092680;23;20416;-85
2021/07/23 01:40:46;;;;;;;8.47;7.27;;;25.40;54.30;;;;;;6203362;23;20466;-85
2021/07/23 01:43:20;;;;;;;9.73;8.27;;;25.40;54.30;;;;;;6229633;23;20388;-85
2021/07/23 01:45:58;;;;;;;7.90;7.10;;;25.40;54.30;;;;;;6204067;23;20379;-85
2021/07/23 01:54:27;;;;;;;8.73;7.60;;;25.40;54.30;;;;;;6230286;23;20422;-86
2021/07/23 01:57:12;;;;;;;8.10;7.30;;;25.40;54.40;;;;;;6230673;23;20453;-86
2021/07/23 01:59:42;;;;;;;7.13;6.43;;;25.40;54.30;;;;;;6204703;23;20425;-86
2021/07/23 02:02:14;;;;;;;8.13;7.30;;;25.40;54.30;;;;;;6288331;22;20407;-85
2021/07/23 02:04:43;;;;;;;7.90;7.10;;;25.40;54.30;;;;;;6324704;22;20836;-85
2021/07/23 02:07:13;;;;;;;7.90;6.60;;;25.40;54.40;;;;;;6297222;22;20387;-86
2021/07/23 02:09:52;;;;;;;8.40;7.60;;;25.40;54.30;;;;;;6297499;22;20439;-85
2021/07/23 02:12:22;;;;;;;7.97;7.17;;;25.50;54.40;;;;;;6324764;22;20375;-85
2021/07/23 02:14:59;;;;;;;10.37;8.00;;;25.50;54.40;;;;;;6298137;22;20391;-85
2021/07/23 02:17:28;;;;;;;7.67;6.97;;;25.40;54.30;;;;;;6273140;22;20446;-85
2021/07/23 02:19:58;;;;;;;7.10;6.40;;;25.40;54.40;;;;;;6297564;22;20431;-85
2021/07/23 02:22:27;;;;;;;6.87;6.17;;;25.50;54.50;;;;;;6298082;22;20401;-85
2021/07/23 02:24:56;;;;;;;8.50;7.50;;;25.50;54.40;;;;;;6296994;22;20376;-85
2021/07/23 02:27:32;;;;;;;7.53;6.83;;;25.50;54.40;;;;;;6297968;22;20699;-85
2021/07/23 02:30:01;;;;;;;8.73;7.83;;;25.50;54.40;;;;;;6297381;22;20402;-85
2021/07/23 02:32:36;;;;;;;7.00;6.27;;;25.50;54.40;;;;;;6296420;22;20470;-84
2021/07/23 02:35:22;;;;;;;9.60;7.53;;;25.50;54.40;;;;;;6322194;22;20875;-84
2021/07/23 02:37:49;;;;;;;8.10;7.30;;;25.50;54.40;;;;;;6298354;22;20473;-84
2021/07/23 02:40:18;;;;;;;7.23;6.47;;;25.50;55.00;;;;;;6298468;22;20375;-84
2021/07/23 02:42:45;;;;;;;7.83;7.00;;;25.50;54.40;;;;;;6299151;22;20382;-84
2021/07/23 02:45:12;;;;;;;9.27;7.60;;;25.50;54.50;;;;;;6298172;22;20424;-83
2021/07/23 02:47:40;;;;;;;8.27;7.47;;;25.40;54.30;;;;;;6298401;22;20383;-83
2021/07/23 02:50:08;;;;;;;8.47;7.60;;;25.40;54.40;;;;;;6297689;22;20371;-84
2021/07/23 02:52:46;;;;;;;9.57;8.53;;;25.40;54.30;;;;;;6299080;22;20382;-84
2021/07/23 02:55:13;;;;;;;9.70;8.57;;;25.40;54.20;;;;;;6274148;22;20401;-85
2021/07/23 02:57:40;;;;;;;9.43;8.53;;;25.40;54.20;;;;;;6297915;22;20462;-85
2021/07/23 03:00:08;;;;;;;9.20;8.20;;;25.40;54.30;;;;;;6298527;22;20403;-85
2021/07/23 03:02:37;;;;;;;9.37;7.47;;;25.40;54.20;;;;;;6297819;22;20383;-84
2021/07/23 03:05:07;;;;;;;8.07;7.27;;;25.40;54.30;;;;;;6324298;22;20406;-85
2021/07/23 03:07:36;;;;;;;10.13;7.97;;;25.40;54.30;;;;;;6298327;22;20856;-85
2021/07/23 03:10:06;;;;;;;8.43;7.53;;;25.40;54.40;;;;;;6324991;22;20402;-85
2021/07/23 03:12:34;;;;;;;7.70;7.00;;;25.40;54.30;;;;;;6297849;22;20387;-85
2021/07/23 03:15:03;;;;;;;8.33;7.57;;;25.40;54.30;;;;;;6297783;22;20379;-85
2021/07/23 03:17:30;;;;;;;8.80;7.93;;;25.40;54.40;;;;;;6273133;22;20383;-85
2021/07/23 03:20:03;;;;;;;8.70;7.83;;;25.40;54.40;;;;;;6298301;22;20491;-85
2021/07/23 03:22:39;;;;;;;9.33;8.43;;;25.40;54.30;;;;;;6322011;22;20400;-85
2021/07/23 03:25:05;;;;;;;9.33;8.43;;;25.40;54.20;;;;;;6298083;22;20370;-85
2021/07/23 03:27:36;;;;;;;11.17;9.70;;;25.40;54.20;;;;;;6298479;22;20390;-85
2021/07/23 03:30:03;;;;;;;9.93;8.93;;;25.30;54.20;;;;;;6297188;22;20469;-85
2021/07/23 03:32:30;;;;;;;9.87;8.63;;;25.30;54.20;;;;;;6298224;22;20383;-84
2021/07/23 03:35:04;;;;;;;9.67;8.50;;;25.30;54.20;;;;;;6297282;22;20379;-85
2021/07/23 03:37:34;;;;;;;10.40;9.30;;;25.30;54.20;;;;;;6297784;22;20814;-84
2021/07/23 03:40:02;;;;;;;10.40;9.27;;;25.30;54.00;;;;;;6297414;22;20462;-84
2021/07/23 03:42:28;;;;;;;9.67;8.70;;;25.30;54.20;;;;;;6297772;22;20718;-85
2021/07/23 03:44:56;;;;;;;8.93;8.03;;;25.30;54.10;;;;;;6297529;22;20401;-85
2021/07/23 03:47:23;;;;;;;9.03;8.13;;;25.30;54.20;;;;;;6324248;22;20417;-85
2021/07/23 03:49:50;;;;;;;9.50;7.90;;;25.30;54.20;;;;;;6297279;22;20834;-85
2021/07/23 03:52:17;;;;;;;9.70;8.70;;;25.30;54.20;;;;;;6297448;22;20441;-85
2021/07/23 03:54:44;;;;;;;10.13;9.10;;;25.30;54.20;;;;;;6297820;22;20391;-85
2021/07/23 03:57:11;;;;;;;10.63;9.63;;;25.30;54.00;;;;;;6272241;22;20387;-85
2021/07/23 03:59:39;;;;;;;10.10;9.03;;;25.20;54.10;;;;;;6297244;22;20415;-85
2021/07/23 04:02:08;;;;;;;10.20;9.20;;;25.20;54.10;;;;;;6298364;22;20376;-85
2021/07/23 04:04:44;;;;;;;11.10;9.33;;;25.10;54.00;;;;;;6297282;22;20375;-85
2021/07/23 04:11:16;;;;;;;10.47;9.40;;;25.10;54.20;;;;;;6286931;22;20393;-84
2021/07/23 04:13:46;;;;;;;11.27;8.80;;;25.10;54.20;;;;;;6296856;22;20439;-84
2021/07/23 04:16:12;;;;;;;11.33;9.40;;;25.10;54.30;;;;;;6297595;22;20380;-84
2021/07/23 04:18:48;;;;;;;11.07;8.90;;;25.10;54.30;;;;;;6297314;22;20415;-84
2021/07/23 04:21:27;;;;;;;11.33;9.53;;;25.10;54.10;;;;;;6297500;22;20402;-84
2021/07/23 04:30:24;;;;;;;10.03;8.93;;;25.10;54.20;;;;;;6324178;22;20347;-90
2021/07/23 04:32:59;;;;;;;10.30;8.17;;;25.10;54.30;;;;;;6297742;22;20431;-87
2021/07/23 04:35:41;;;;;;;10.20;8.30;;;25.10;54.30;;;;;;6298582;22;20383;-85
2021/07/23 04:39:03;;;;;;;13.80;9.70;;;25.20;54.40;;;;;;6300003;22;20462;-85
2021/07/23 04:44:52;;;;;;;11.00;9.73;;;25.20;54.30;;;;;;6296343;22;20366;-84
2021/07/23 04:47:24;;;;;;;11.10;9.87;;;25.20;54.40;;;;;;6294812;22;20383;-84
2021/07/23 04:49:51;;;;;;;11.47;9.47;;;25.20;54.20;;;;;;6265764;22;20379;-84
2021/07/23 04:52:25;;;;;;;9.70;8.67;;;25.20;54.10;;;;;;6268959;22;20369;-84
2021/07/23 04:54:51;;;;;;;9.20;8.30;;;25.20;54.00;;;;;;6265334;22;20369;-84
2021/07/23 04:57:25;;;;;;;11.20;8.97;;;25.20;54.10;;;;;;6269872;22;20885;-87
2021/07/23 05:00:02;;;;;;;13.90;9.20;;;25.20;54.10;;;;;;6294194;22;20420;-87
2021/07/23 05:02:29;;;;;;;11.53;10.33;;;25.10;53.80;;;;;;6266639;22;20391;-88
2021/07/23 05:05:08;;;;;;;12.27;10.97;;;25.00;53.70;;;;;;6269445;22;20407;-89
2021/07/23 05:14:31;;;;;;;9.93;8.83;;;25.10;54.20;;;;;;6204114;23;20357;-90
2021/07/23 06:05:48;;;;;;;12.10;9.80;;;25.20;54.10;;;;;;5832095;24;20406;-92
2021/07/23 06:09:00;;;;;;;12.37;9.70;;;25.10;54.10;;;;;;5900176;24;20380;-92
2021/07/23 06:11:27;;;;;;;12.50;10.33;;;25.20;54.10;;;;;;5913624;24;20420;-92
2021/07/23 06:14:04;;;;;;;12.03;10.30;;;25.20;54.20;;;;;;5945973;23;20390;-91
2021/07/23 06:16:41;;;;;;;10.57;8.93;;;25.30;54.20;;;;;;6053468;23;20391;-92
2021/07/23 06:19:11;;;;;;;10.63;9.53;;;25.30;54.20;;;;;;6091007;23;20510;-92
2021/07/23 06:21:39;;;;;;;11.70;10.10;;;25.40;54.20;;;;;;6144128;23;20491;-93
2021/07/23 06:24:28;;;;;;;11.80;10.40;;;25.40;54.10;;;;;;6145227;23;20463;-92
2021/07/23 06:27:01;;;;;;;12.07;9.93;;;25.40;54.00;;;;;;6144319;23;20376;-92
2021/07/23 06:29:35;;;;;;;12.67;9.17;;;25.50;54.10;;;;;;6252772;22;20375;-92
2021/07/23 06:32:11;;;;;;;9.70;8.63;;;25.50;54.00;;;;;;6245116;22;20404;-92
2021/07/23 06:34:40;;;;;;;10.90;9.53;;;25.50;54.00;;;;;;6265799;22;20387;-92
2021/07/23 06:37:15;;;;;;;11.30;9.77;;;25.60;54.00;;;;;;6291848;22;20375;-91
2021/07/23 06:39:42;;;;;;;11.37;9.17;;;25.60;53.90;;;;;;6240959;22;20474;-91
2021/07/23 06:42:37;;;;;;;13.80;10.40;;;25.60;53.90;;;;;;6265016;22;20443;-91
2021/07/23 06:45:21;;;;;;;11.83;10.33;;;25.60;53.90;;;;;;6288842;22;20479;-91
2021/07/23 06:48:08;;;;;;;11.80;10.13;;;25.60;53.90;;;;;;6289744;22;20817;-93
2021/07/23 06:51:02;;;;;;;10.87;9.77;;;25.60;53.80;;;;;;6291618;22;20341;-92
2021/07/23 06:57:09;;;;;;;12.40;10.50;;;25.70;53.90;;;;;;6146057;23;20753;-87
2021/07/23 06:59:37;;;;;;;13.67;10.93;;;25.70;53.90;;;;;;6145642;23;20420;-87
2021/07/23 07:02:09;;;;;;;13.60;11.53;;;25.70;53.90;;;;;;6145802;23;20377;-87
2021/07/23 07:15:09;;;;;;;11.20;9.47;;;25.70;53.90;;;;;;6086510;23;20385;-85
2021/07/23 07:17:53;;;;;;;;;;;;;;;;;;;;;
2021/07/23 07:21:03;;;;;;;;;;;;;;;;;;;;;
2021/07/23 07:24:10;;;;;;;;;;;;;;;;;;;;;
2021/07/23 07:30:06;;;;;;;12.83;11.53;;;25.80;54.00;;;;;;5976647;24;20354;-87
2021/07/23 07:33:34;;;;;;;;;;;;;;;;;;;;;
2021/07/23 07:36:16;;;;;;;;;;;;;;;;;;;;;
2021/07/23 07:59:31;;;;;;;12.70;11.37;;;25.80;54.10;;;;;;6058991;23;20462;-88
2021/07/23 08:06:05;;;;;;;12.70;10.40;;;25.90;54.20;;;;;;6060257;23;20396;-87
2021/07/23 08:47:53;;;;;;;;;;;;;;;;;;;;;
2021/07/23 09:07:27;;;;;;;10.90;9.60;;;26.00;54.50;;;;;;6058047;23;20974;-85
2021/07/23 09:10:03;;;;;;;11.20;9.53;;;26.00;54.50;;;;;;6035111;23;20419;-84
2021/07/23 09:13:14;;;;;;;10.73;9.63;;;26.00;54.50;;;;;;6034898;23;20390;-84
2021/07/23 09:19:21;;;;;;;12.17;10.07;;;26.00;54.40;;;;;;6057504;23;20994;-85
2021/07/23 09:22:26;;;;;;;12.50;11.20;;;26.10;54.40;;;;;;6085606;23;20386;-84
2021/07/23 09:27:44;;;;;;;11.20;9.90;;;26.10;54.50;;;;;;6077182;23;20402;-90
2021/07/23 09:37:13;;;;;;;10.50;9.40;;;26.10;54.40;;;;;;6099389;23;20369;-89
2021/07/23 09:40:29;;;;;;;;;;;;;;;;;;;;;
2021/07/23 09:43:35;;;;;;;10.93;9.30;;;26.10;54.50;;;;;;6169527;23;20372;-89
2021/07/23 09:46:23;;;;;;;10.90;9.47;;;26.10;54.40;;;;;;6169735;23;20455;-90
2021/07/23 09:49:02;;;;;;;13.50;9.57;;;26.10;54.40;;;;;;6170555;23;20544;-89
2021/07/23 09:51:32;;;;;;;11.00;8.80;;;26.10;54.50;;;;;;6145909;23;20380;-90
2021/07/23 09:54:56;;;;;;;12.50;10.77;;;26.10;54.50;;;;;;6145773;23;20411;-90
2021/07/23 09:57:42;;;;;;;12.43;9.10;;;26.10;54.40;;;;;;6170830;23;20497;-89
2021/07/23 10:00:36;;;;;;;11.30;10.20;;;26.10;54.50;;;;;;6171233;23;20423;-89
2021/07/23 10:09:31;;;;;;;10.17;9.10;;;26.10;54.40;;;;;;6171179;23;20351;-88
2021/07/23 10:11:59;;;;;;;13.23;9.73;;;26.10;54.50;;;;;;6146136;23;20399;-88
2021/07/23 10:20:58;;;;;;;9.50;8.50;;;26.20;54.50;;;;;;6170220;23;20375;-88
2021/07/23 10:23:26;;;;;;;10.60;9.50;;;26.10;54.50;;;;;;6146604;23;20395;-88
2021/07/23 10:25:59;;;;;;;9.50;8.50;;;26.20;54.50;;;;;;6170249;23;20388;-88
2021/07/23 10:28:46;;;;;;;11.00;9.10;;;26.20;54.50;;;;;;6169324;23;20378;-88
2021/07/23 18:39:06;;;;;;;;;;;;;;;;;;;;;
2021/07/23 19:40:37;;;;;;;;;;;;;;;;;;;;;
